Time;durP1;ratioP1;P1;durP2;ratioP2;P2;SDS_P1;SDS_P2;PMS_P1;PMS_P2;Temp;Humidity;BMP_temperature;BMP_pressure;BME280_temperature;BME280_humidity;BME280_pressure;Samples;Min_cycle;Max_cycle;Signal;HPM_P1;HPM_P2
2022/06/03 00:02:59;;;;;;;1.20;1.10;;;28.00;59.40;;;;;;4927823;29;20550;-61
2022/06/03 00:05:45;;;;;;;1.37;1.27;;;28.20;57.10;;;;;;4927280;29;20495;-61
2022/06/03 00:08:45;;;;;;;1.20;1.13;;;27.90;58.90;;;;;;4927454;29;20465;-62
2022/06/03 00:11:32;;;;;;;1.50;1.40;;;27.50;59.90;;;;;;4868058;29;20456;-62
2022/06/03 00:14:30;;;;;;;1.57;1.47;;;27.50;63.00;;;;;;4868049;29;20504;-62
2022/06/03 00:17:09;;;;;;;1.77;1.67;;;27.40;62.70;;;;;;4868143;29;20461;-62
2022/06/03 00:19:56;;;;;;;1.60;1.50;;;27.40;68.50;;;;;;4867901;29;20615;-61
2022/06/03 00:22:46;;;;;;;1.60;1.50;;;27.40;69.30;;;;;;4850787;29;20551;-62
2022/06/03 00:25:43;;;;;;;1.67;1.57;;;27.40;68.40;;;;;;4848511;29;20498;-62
2022/06/03 00:28:38;;;;;;;1.83;1.73;;;27.50;68.10;;;;;;4849613;29;20458;-61
2022/06/03 00:31:22;;;;;;;1.30;1.20;;;27.50;67.70;;;;;;4850005;29;20457;-62
2022/06/03 00:34:11;;;;;;;1.60;1.50;;;27.50;68.30;;;;;;4849503;29;20485;-62
2022/06/03 00:36:57;;;;;;;1.27;1.27;;;27.50;69.40;;;;;;4849875;29;20811;-62
2022/06/03 00:39:49;;;;;;;1.50;1.40;;;27.40;69.40;;;;;;4865006;29;20508;-62
2022/06/03 00:42:36;;;;;;;1.60;1.50;;;27.50;68.50;;;;;;4868150;29;20441;-63
2022/06/03 00:45:34;;;;;;;2.00;1.90;;;27.30;68.30;;;;;;4867977;29;20503;-61
2022/06/03 00:48:23;;;;;;;2.33;1.70;;;27.40;66.50;;;;;;4901576;29;20780;-62
2022/06/03 00:51:15;;;;;;;1.40;1.30;;;27.50;67.70;;;;;;4926734;29;20445;-61
2022/06/03 00:54:18;;;;;;;1.73;1.20;;;27.60;67.40;;;;;;4926012;29;21220;-62
2022/06/03 00:57:20;;;;;;;1.40;1.30;;;27.50;69.30;;;;;;4926539;29;20465;-61
2022/06/03 01:00:10;;;;;;;1.33;1.20;;;27.30;69.30;;;;;;4918461;29;20454;-62
2022/06/03 01:02:56;;;;;;;1.47;1.37;;;27.30;70.80;;;;;;4926375;29;20568;-62
2022/06/03 01:05:35;;;;;;;1.20;1.10;;;27.30;68.50;;;;;;4925849;29;20829;-62
2022/06/03 01:08:15;;;;;;;1.43;1.33;;;27.10;71.90;;;;;;4926419;29;20493;-62
2022/06/03 01:11:03;;;;;;;1.30;1.20;;;26.80;74.00;;;;;;4914361;29;20454;-62
2022/06/03 01:14:05;;;;;;;2.63;1.67;;;26.70;76.00;;;;;;4907317;29;20466;-62
2022/06/03 01:16:57;;;;;;;1.90;1.80;;;26.60;80.30;;;;;;4906377;29;20470;-62
2022/06/03 01:20:01;;;;;;;2.67;1.87;;;26.50;85.30;;;;;;4906858;29;20515;-62
2022/06/03 01:22:58;;;;;;;1.70;1.60;;;26.50;83.40;;;;;;4925654;29;20508;-62
2022/06/03 01:25:56;;;;;;;2.53;1.70;;;26.40;82.50;;;;;;4924927;29;20571;-62
2022/06/03 01:28:51;;;;;;;2.10;2.00;;;26.30;84.40;;;;;;4926031;29;20466;-61
2022/06/03 01:31:50;;;;;;;2.60;2.17;;;26.30;83.30;;;;;;4925964;29;20472;-61
2022/06/03 01:34:37;;;;;;;1.57;1.30;;;26.40;87.50;;;;;;4924219;29;20453;-62
2022/06/03 01:37:16;;;;;;;2.20;2.00;;;26.30;89.10;;;;;;4925796;29;20498;-62
2022/06/03 01:40:19;;;;;;;1.80;1.70;;;26.20;91.40;;;;;;4925006;29;20461;-61
2022/06/03 01:43:41;;;;;;;1.67;1.57;;;26.00;91.90;;;;;;4912603;29;20463;-62
2022/06/03 01:46:26;;;;;;;2.67;2.20;;;25.90;91.60;;;;;;4867053;29;20562;-63
2022/06/03 01:49:39;;;;;;;3.00;2.60;;;25.90;91.40;;;;;;4866976;29;20538;-62
2022/06/03 01:52:38;;;;;;;2.10;1.90;;;25.70;91.60;;;;;;4867683;29;20451;-61
2022/06/03 01:55:47;;;;;;;2.40;2.20;;;25.60;93.00;;;;;;4863113;29;20462;-61
2022/06/03 01:59:07;;;;;;;2.67;2.37;;;25.60;94.00;;;;;;4867950;29;20442;-61
2022/06/03 02:02:20;;;;;;;2.70;2.50;;;25.60;93.30;;;;;;4871359;29;20480;-61
2022/06/03 02:05:28;;;;;;;1.93;1.80;;;25.60;93.30;;;;;;4870831;29;20510;-62
2022/06/03 02:08:20;;;;;;;2.47;2.27;;;25.60;94.20;;;;;;4871485;29;20474;-62
2022/06/03 02:11:18;;;;;;;2.00;1.90;;;25.40;95.00;;;;;;4869975;29;20456;-62
2022/06/03 02:14:28;;;;;;;2.83;2.60;;;25.30;95.10;;;;;;4870306;29;20484;-62
2022/06/03 02:17:29;;;;;;;2.33;2.23;;;25.30;94.00;;;;;;4868085;29;20470;-62
2022/06/03 02:20:25;;;;;;;2.17;2.00;;;25.10;95.60;;;;;;4870474;29;20470;-61
2022/06/03 02:23:22;;;;;;;2.90;2.10;;;25.00;95.40;;;;;;4929447;29;20439;-61
2022/06/03 02:26:24;;;;;;;2.40;2.20;;;25.00;96.20;;;;;;4928331;29;21175;-62
2022/06/03 02:32:35;;;;;;;2.40;2.20;;;24.70;96.60;;;;;;4927608;29;20459;-62
2022/06/03 02:35:23;;;;;;;2.30;2.10;;;24.60;97.00;;;;;;4928854;29;20450;-62
2022/06/03 02:38:27;;;;;;;2.00;1.90;;;24.60;96.30;;;;;;4929286;29;20439;-62
2022/06/03 02:41:30;;;;;;;2.37;2.17;;;24.30;97.00;;;;;;4927972;29;20553;-62
2022/06/03 02:44:23;;;;;;;1.83;1.73;;;24.20;97.20;;;;;;4928955;29;20466;-62
2022/06/03 02:47:21;;;;;;;2.40;2.17;;;24.10;97.90;;;;;;4929157;29;20471;-61
2022/06/03 02:50:21;;;;;;;1.97;1.80;;;23.90;98.20;;;;;;4913543;29;20463;-61
2022/06/03 02:53:43;;;;;;;1.93;1.83;;;23.90;98.20;;;;;;4907584;29;20990;-61
2022/06/03 02:56:34;;;;;;;2.23;2.07;;;23.70;98.20;;;;;;4909285;29;20555;-62
2022/06/03 02:59:48;;;;;;;2.30;2.03;;;23.60;98.90;;;;;;4911671;29;20440;-61
2022/06/03 03:02:37;;;;;;;2.13;1.93;;;23.50;99.80;;;;;;4870376;29;20549;-60
2022/06/03 03:05:32;;;;;;;2.40;2.20;;;23.50;99.90;;;;;;4870003;29;20493;-60
2022/06/03 03:08:52;;;;;;;2.60;2.23;;;23.40;99.90;;;;;;4866954;29;20457;-60
2022/06/03 03:12:01;;;;;;;2.37;2.20;;;23.30;99.90;;;;;;4869322;29;20458;-61
2022/06/03 03:15:01;;;;;;;2.40;1.77;;;23.30;99.90;;;;;;4869379;29;20432;-61
2022/06/03 03:18:07;;;;;;;2.40;2.00;;;23.30;99.90;;;;;;4869546;29;20483;-61
2022/06/03 03:21:01;;;;;;;1.47;1.37;;;23.20;99.90;;;;;;4865581;29;20573;-61
2022/06/03 03:24:07;;;;;;;2.17;1.97;;;23.20;99.90;;;;;;4850933;29;20435;-61
2022/06/03 03:26:54;;;;;;;2.43;2.00;;;23.20;99.90;;;;;;4850567;29;20476;-61
2022/06/03 03:29:50;;;;;;;2.70;2.40;;;23.10;99.90;;;;;;4850981;29;20587;-61
2022/06/03 03:32:41;;;;;;;2.77;2.40;;;23.00;99.90;;;;;;4851020;29;20498;-60
2022/06/03 03:35:36;;;;;;;2.40;2.20;;;22.80;99.90;;;;;;4850904;29;20451;-61
2022/06/03 03:38:32;;;;;;;2.53;2.40;;;22.70;99.90;;;;;;4886873;29;20441;-60
2022/06/03 03:41:31;;;;;;;3.17;2.80;;;22.60;99.90;;;;;;4926564;29;20450;-60
2022/06/03 03:44:53;;;;;;;1.80;1.70;;;22.60;99.90;;;;;;4927997;29;20439;-61
2022/06/03 03:48:17;;;;;;;1.97;1.87;;;22.50;99.90;;;;;;4928179;29;20493;-62
2022/06/03 03:51:32;;;;;;;1.43;1.33;;;22.50;99.90;;;;;;4869225;29;21146;-61
2022/06/03 03:54:41;;;;;;;1.80;1.63;;;22.50;99.90;;;;;;4849153;29;20579;-61
2022/06/03 03:57:37;;;;;;;1.87;1.77;;;22.40;99.90;;;;;;4850800;29;20458;-61
2022/06/03 04:00:44;;;;;;;2.40;1.77;;;22.30;99.90;;;;;;4850639;29;20454;-61
2022/06/03 04:03:46;;;;;;;2.10;1.97;;;22.20;99.90;;;;;;4850343;29;20476;-61
2022/06/03 04:06:39;;;;;;;1.57;1.47;;;22.00;99.90;;;;;;4850446;29;20504;-61
2022/06/03 04:09:42;;;;;;;1.73;1.47;;;21.80;99.90;;;;;;4849201;29;20450;-61
2022/06/03 04:12:35;;;;;;;2.30;1.50;;;21.80;99.90;;;;;;4850176;29;20446;-61
2022/06/03 04:15:50;;;;;;;1.70;1.60;;;21.60;99.90;;;;;;4850347;29;20456;-61
2022/06/03 04:18:59;;;;;;;1.50;1.40;;;21.40;99.90;;;;;;4850061;29;20535;-61
2022/06/03 04:22:01;;;;;;;1.63;1.30;;;21.30;99.90;;;;;;4849125;29;20463;-61
2022/06/03 04:24:59;;;;;;;2.50;2.30;;;21.20;99.90;;;;;;4875177;29;20967;-62
2022/06/03 04:28:01;;;;;;;3.00;1.90;;;21.00;99.90;;;;;;4905820;29;20491;-61
2022/06/03 04:31:12;;;;;;;2.33;1.70;;;20.80;99.90;;;;;;4907424;29;20461;-61
2022/06/03 04:34:32;;;;;;;2.67;2.30;;;20.60;99.90;;;;;;4907903;29;20908;-61
2022/06/03 04:37:38;;;;;;;2.47;2.20;;;20.50;99.90;;;;;;4908425;29;20455;-61
2022/06/03 04:40:50;;;;;;;2.00;1.90;;;20.50;99.90;;;;;;4884703;29;20958;-61
2022/06/03 04:43:56;;;;;;;2.83;2.60;;;20.40;99.90;;;;;;4849658;29;20512;-62
2022/06/03 04:47:13;;;;;;;2.70;2.30;;;20.40;99.90;;;;;;4849580;29;20494;-61
2022/06/03 04:50:27;;;;;;;2.70;2.10;;;20.30;99.90;;;;;;4849423;29;20472;-61
2022/06/03 04:53:43;;;;;;;2.57;2.37;;;20.20;99.90;;;;;;4849549;29;20450;-61
2022/06/03 04:56:55;;;;;;;2.40;2.10;;;20.10;99.90;;;;;;4849267;29;20424;-61
2022/06/03 05:00:18;;;;;;;3.00;2.33;;;20.10;99.90;;;;;;4849439;29;20439;-61
2022/06/03 05:03:20;;;;;;;2.53;2.37;;;19.90;99.90;;;;;;4849376;29;20456;-60
2022/06/03 05:06:26;;;;;;;2.70;2.10;;;19.90;99.90;;;;;;4849080;29;20468;-61
2022/06/03 05:09:41;;;;;;;2.00;1.80;;;19.80;99.90;;;;;;4848629;29;20490;-61
2022/06/03 05:12:53;;;;;;;2.27;2.07;;;19.70;99.90;;;;;;4849181;29;20942;-60
2022/06/03 05:16:05;;;;;;;1.80;1.60;;;19.60;99.90;;;;;;4794818;30;20456;-61
2022/06/03 05:19:06;;;;;;;2.13;1.93;;;19.50;99.90;;;;;;4793191;30;20445;-61
2022/06/03 05:22:13;;;;;;;1.70;1.60;;;19.40;99.90;;;;;;4842400;29;20438;-61
2022/06/03 05:25:06;;;;;;;1.90;1.70;;;19.40;99.90;;;;;;4837810;29;20435;-61
2022/06/03 05:28:10;;;;;;;1.80;1.60;;;19.40;99.90;;;;;;4849455;29;20902;-61
2022/06/03 05:31:21;;;;;;;1.53;1.43;;;19.40;99.90;;;;;;4849580;29;20478;-61
2022/06/03 05:34:38;;;;;;;2.50;2.00;;;19.30;99.90;;;;;;4849327;29;20443;-60
2022/06/03 05:37:48;;;;;;;2.20;2.10;;;19.20;99.90;;;;;;4849501;29;20417;-61
2022/06/03 05:40:40;;;;;;;2.30;1.70;;;19.10;99.90;;;;;;4848188;29;20466;-61
2022/06/03 05:43:49;;;;;;;2.00;1.73;;;19.00;99.90;;;;;;4849550;29;20458;-61
2022/06/03 05:46:33;;;;;;;2.17;1.97;;;19.00;99.90;;;;;;4849670;29;20473;-61
2022/06/03 05:49:18;;;;;;;2.67;2.30;;;18.90;99.90;;;;;;4849051;29;20490;-61
2022/06/03 05:52:02;;;;;;;2.60;2.00;;;18.80;99.90;;;;;;4906104;29;20530;-61
2022/06/03 05:54:46;;;;;;;1.90;1.80;;;18.70;99.90;;;;;;4925203;29;20442;-61
2022/06/03 05:57:32;;;;;;;2.23;2.03;;;18.70;99.90;;;;;;4926097;29;20463;-60
2022/06/03 06:00:36;;;;;;;3.50;2.40;;;18.60;99.90;;;;;;4915664;29;21246;-61
2022/06/03 06:03:24;;;;;;;2.40;2.23;;;18.70;99.90;;;;;;4906968;29;20451;-61
2022/06/03 06:06:10;;;;;;;3.03;2.20;;;18.60;99.90;;;;;;4906805;29;20430;-61
2022/06/03 06:08:55;;;;;;;2.00;1.90;;;18.50;99.90;;;;;;4907375;29;20451;-61
2022/06/03 06:11:34;;;;;;;2.37;2.17;;;18.50;99.90;;;;;;4907094;29;20493;-61
2022/06/03 06:14:33;;;;;;;2.40;1.93;;;18.50;99.90;;;;;;4906678;29;20443;-61
2022/06/03 06:17:14;;;;;;;1.93;1.60;;;18.40;99.90;;;;;;4906693;29;20453;-61
2022/06/03 06:19:50;;;;;;;1.73;1.63;;;18.30;99.90;;;;;;4906929;29;20455;-61
2022/06/03 06:22:29;;;;;;;1.80;1.70;;;18.30;99.90;;;;;;4924418;29;20457;-61
2022/06/03 06:25:11;;;;;;;2.10;1.90;;;18.30;99.90;;;;;;4924483;29;20462;-61
2022/06/03 06:28:01;;;;;;;1.67;1.57;;;18.20;99.90;;;;;;4925800;29;20468;-61
2022/06/03 06:30:59;;;;;;;1.90;1.70;;;18.20;99.90;;;;;;4925438;29;20432;-61
2022/06/03 06:33:54;;;;;;;2.03;1.87;;;18.20;99.90;;;;;;4925450;29;20457;-61
2022/06/03 06:37:00;;;;;;;1.60;1.50;;;18.10;99.90;;;;;;4925979;29;20455;-60
2022/06/03 06:39:52;;;;;;;3.60;1.87;;;18.00;99.90;;;;;;4905491;29;20539;-61
2022/06/03 06:42:37;;;;;;;1.60;1.40;;;18.00;99.90;;;;;;4907042;29;20457;-61
2022/06/03 06:45:27;;;;;;;1.90;1.80;;;18.10;99.90;;;;;;4907582;29;20440;-61
2022/06/03 06:48:10;;;;;;;1.70;1.40;;;18.00;99.90;;;;;;4909918;29;20498;-61
2022/06/03 06:50:53;;;;;;;1.53;1.43;;;18.00;99.90;;;;;;4909973;29;20505;-61
2022/06/03 06:53:34;;;;;;;1.70;1.60;;;18.00;99.90;;;;;;4909823;29;20430;-61
2022/06/03 06:56:16;;;;;;;1.90;1.80;;;17.90;99.90;;;;;;4909343;29;20456;-61
2022/06/03 06:58:56;;;;;;;2.00;1.90;;;17.80;99.90;;;;;;4909836;29;20447;-60
2022/06/03 07:01:39;;;;;;;1.87;1.60;;;17.70;99.90;;;;;;4910098;29;20524;-61
2022/06/03 07:04:13;;;;;;;1.73;1.63;;;17.70;99.90;;;;;;4909449;29;20455;-60
2022/06/03 07:06:45;;;;;;;1.50;1.40;;;17.70;99.90;;;;;;4909856;29;20466;-61
2022/06/03 07:09:35;;;;;;;1.73;1.57;;;17.70;99.90;;;;;;4908589;29;20546;-60
2022/06/03 07:12:15;;;;;;;1.73;1.63;;;17.60;99.90;;;;;;4909576;29;20456;-61
2022/06/03 07:14:58;;;;;;;1.73;1.63;;;17.60;99.90;;;;;;4908937;29;20490;-61
2022/06/03 07:20:57;;;;;;;1.87;1.77;;;17.60;99.90;;;;;;4914703;29;20454;-61
2022/06/03 07:23:36;;;;;;;1.60;1.50;;;17.50;99.90;;;;;;4928473;29;20511;-60
2022/06/03 07:26:31;;;;;;;2.37;1.93;;;17.50;99.90;;;;;;4928020;29;20446;-61
2022/06/03 07:29:11;;;;;;;3.23;1.87;;;17.50;99.90;;;;;;4928092;29;20472;-61
2022/06/03 07:31:49;;;;;;;1.40;1.30;;;17.50;99.90;;;;;;4928433;29;20831;-60
2022/06/03 07:34:25;;;;;;;1.97;1.77;;;17.40;99.90;;;;;;4927519;29;20428;-61
2022/06/03 07:37:02;;;;;;;2.60;1.77;;;17.40;99.90;;;;;;4928290;29;20455;-61
2022/06/03 07:39:56;;;;;;;1.70;1.60;;;17.40;99.90;;;;;;4926904;29;20433;-61
2022/06/03 07:42:38;;;;;;;1.73;1.63;;;17.40;99.90;;;;;;4928329;29;20533;-61
2022/06/03 07:45:37;;;;;;;2.70;1.80;;;17.40;99.90;;;;;;4927570;29;20597;-60
2022/06/03 07:48:16;;;;;;;1.70;1.60;;;17.30;99.90;;;;;;4920046;29;20536;-61
2022/06/03 07:50:53;;;;;;;1.40;1.30;;;17.30;99.90;;;;;;4927738;29;20438;-60
2022/06/03 07:53:33;;;;;;;2.03;1.90;;;17.20;99.90;;;;;;4928016;29;20454;-60
2022/06/03 07:56:06;;;;;;;1.90;1.80;;;17.20;99.90;;;;;;4926003;29;20531;-60
2022/06/03 07:58:39;;;;;;;1.97;1.77;;;17.10;99.90;;;;;;4927479;29;20943;-60
2022/06/03 08:01:23;;;;;;;2.00;1.80;;;17.10;99.90;;;;;;4927421;29;20430;-61
2022/06/03 08:03:56;;;;;;;1.43;1.33;;;17.10;99.90;;;;;;4927442;29;20478;-60
2022/06/03 08:10:56;;;;;;;2.30;2.10;;;17.00;99.90;;;;;;4927439;29;20519;-60
2022/06/03 08:12:13;;;;;;;1.70;1.47;;;17.00;99.90;;;;;;4908703;29;20523;-60
2022/06/03 08:14:47;;;;;;;2.20;1.60;;;17.00;99.90;;;;;;4908164;29;20487;-60
2022/06/03 08:17:19;;;;;;;1.67;1.57;;;16.90;99.90;;;;;;4908459;29;20456;-60
2022/06/03 08:19:51;;;;;;;1.70;1.60;;;16.90;99.90;;;;;;4907774;29;20956;-60
2022/06/03 08:22:25;;;;;;;2.03;1.93;;;16.90;99.90;;;;;;4908371;29;20440;-60
2022/06/03 08:24:58;;;;;;;1.53;1.43;;;16.80;99.90;;;;;;4907190;29;20517;-60
2022/06/03 08:27:33;;;;;;;1.80;1.70;;;16.90;99.90;;;;;;4908706;29;20494;-60
2022/06/03 08:30:08;;;;;;;2.50;1.60;;;16.90;99.90;;;;;;4908045;29;20510;-61
2022/06/03 08:32:45;;;;;;;1.93;1.60;;;17.00;99.90;;;;;;4907951;29;20451;-60
2022/06/03 08:35:20;;;;;;;1.87;1.70;;;17.00;99.90;;;;;;4907510;29;20482;-61
2022/06/03 08:37:54;;;;;;;1.67;1.57;;;17.00;99.90;;;;;;4907993;29;20463;-60
2022/06/03 08:40:34;;;;;;;1.50;1.40;;;17.00;99.90;;;;;;4906636;29;20460;-60
2022/06/03 08:43:20;;;;;;;1.70;1.60;;;16.90;99.90;;;;;;4907533;29;20470;-61
2022/06/03 08:45:57;;;;;;;2.03;1.90;;;16.90;99.90;;;;;;4907066;29;20462;-62
2022/06/03 08:48:35;;;;;;;2.07;1.97;;;16.90;99.90;;;;;;4911489;29;20484;-60
2022/06/03 08:51:15;;;;;;;2.13;1.77;;;16.90;99.90;;;;;;4926658;29;20458;-60
2022/06/03 08:53:53;;;;;;;2.37;2.00;;;16.90;99.90;;;;;;4925820;29;20455;-60
2022/06/03 08:56:27;;;;;;;2.07;1.83;;;17.00;99.90;;;;;;4926258;29;20489;-60
2022/06/03 08:59:03;;;;;;;1.90;1.47;;;17.10;99.90;;;;;;4926359;29;20458;-60
2022/06/03 09:01:39;;;;;;;1.20;1.10;;;17.10;99.90;;;;;;4926360;29;20469;-60
2022/06/03 09:04:20;;;;;;;2.63;1.47;;;17.20;99.90;;;;;;4925779;29;20425;-61
2022/06/03 09:07:06;;;;;;;1.50;1.40;;;17.20;99.90;;;;;;4926382;29;20461;-61
2022/06/03 09:09:45;;;;;;;1.53;1.43;;;17.20;99.90;;;;;;4925212;29;20494;-61
2022/06/03 09:12:25;;;;;;;1.40;1.30;;;17.20;99.90;;;;;;4926367;29;20433;-61
2022/06/03 09:14:56;;;;;;;1.37;1.27;;;17.30;99.90;;;;;;4925785;29;20436;-61
2022/06/03 09:17:38;;;;;;;1.30;1.20;;;17.20;99.90;;;;;;4926379;29;20943;-60
2022/06/03 09:20:13;;;;;;;1.20;1.10;;;17.20;99.90;;;;;;4926086;29;21004;-60
2022/06/03 09:22:47;;;;;;;1.60;1.50;;;17.20;99.90;;;;;;4925992;29;20436;-61
2022/06/03 09:25:19;;;;;;;1.33;1.10;;;17.20;99.90;;;;;;4925051;29;20436;-61
2022/06/03 09:27:51;;;;;;;0.90;0.90;;;17.20;99.90;;;;;;4926544;29;20446;-61
2022/06/03 09:33:20;;;;;;;1.43;1.17;;;17.20;99.90;;;;;;4925649;29;20486;-60
2022/06/03 09:35:54;;;;;;;1.03;0.93;;;17.20;99.90;;;;;;4925610;29;20465;-60
2022/06/03 09:38:34;;;;;;;1.90;1.00;;;17.20;99.90;;;;;;4925904;29;20457;-60
2022/06/03 09:41:08;;;;;;;1.10;1.00;;;17.20;99.90;;;;;;4924842;29;20476;-60
2022/06/03 09:43:42;;;;;;;1.00;0.90;;;17.20;99.90;;;;;;4925722;29;20439;-61
2022/06/03 09:46:16;;;;;;;1.07;1.00;;;17.30;99.90;;;;;;4925817;29;20478;-60
2022/06/03 09:48:48;;;;;;;0.90;0.90;;;17.40;99.90;;;;;;4925596;29;20632;-60
2022/06/03 09:51:55;;;;;;;0.70;0.70;;;17.30;99.90;;;;;;4925880;29;20465;-60
2022/06/03 09:54:21;;;;;;;3.20;1.50;;;17.40;99.90;;;;;;4924684;29;20455;-60
2022/06/03 09:56:53;;;;;;;1.07;0.97;;;17.40;99.90;;;;;;4925858;29;20951;-59
2022/06/03 09:59:27;;;;;;;1.93;1.37;;;17.40;99.90;;;;;;4925502;29;20562;-60
2022/06/03 10:01:57;;;;;;;1.70;1.60;;;17.40;99.90;;;;;;4925800;29;20439;-60
2022/06/03 10:04:28;;;;;;;2.30;1.80;;;17.40;99.90;;;;;;4925542;29;20814;-60
2022/06/03 10:07:02;;;;;;;1.60;1.50;;;17.30;99.90;;;;;;4925538;29;20450;-59
2022/06/03 10:12:52;;;;;;;0.73;0.73;;;17.40;99.90;;;;;;4925564;29;20466;-60
2022/06/03 10:15:44;;;;;;;1.60;1.07;;;17.40;99.90;;;;;;4925346;29;20509;-60
2022/06/03 10:18:23;;;;;;;0.70;0.50;;;17.40;99.90;;;;;;4925627;29;20533;-60
2022/06/03 10:21:30;;;;;;;0.90;0.80;;;17.40;99.90;;;;;;4928093;29;20425;-60
2022/06/03 10:24:03;;;;;;;0.53;0.53;;;17.40;99.90;;;;;;4928299;29;21067;-61
2022/06/03 10:26:46;;;;;;;1.20;1.20;;;17.40;99.90;;;;;;4929021;29;20591;-60
2022/06/03 10:29:20;;;;;;;1.13;0.77;;;17.40;99.90;;;;;;4928947;29;20494;-60
2022/06/03 10:31:53;;;;;;;1.13;0.80;;;17.30;99.90;;;;;;4929450;29;20446;-60
2022/06/03 10:34:37;;;;;;;1.87;0.90;;;17.30;99.90;;;;;;4928772;29;20477;-60
2022/06/03 10:37:11;;;;;;;1.53;0.97;;;17.30;99.90;;;;;;4929040;29;20472;-61
2022/06/03 10:39:44;;;;;;;1.00;0.80;;;17.30;99.90;;;;;;4928060;29;20455;-61
2022/06/03 10:42:21;;;;;;;0.93;0.80;;;17.30;99.90;;;;;;4929002;29;20451;-60
2022/06/03 10:44:56;;;;;;;1.10;1.00;;;17.40;99.90;;;;;;4928699;29;20420;-60
2022/06/03 10:47:35;;;;;;;1.73;1.20;;;17.40;99.90;;;;;;4928688;29;20500;-61
2022/06/03 10:50:11;;;;;;;1.07;0.93;;;17.40;99.90;;;;;;4928944;29;20468;-61
2022/06/03 11:01:41;;;;;;;1.00;1.00;;;17.00;99.90;;;;;;4928922;29;20437;-61
2022/06/03 11:04:27;;;;;;;0.70;0.70;;;17.00;99.90;;;;;;4928219;29;20440;-61
2022/06/03 11:07:01;;;;;;;1.00;0.80;;;16.90;99.90;;;;;;4928460;29;20485;-61
2022/06/03 11:09:32;;;;;;;0.63;0.60;;;16.80;99.90;;;;;;4927159;29;20512;-60
2022/06/03 11:12:05;;;;;;;0.80;0.80;;;16.80;99.90;;;;;;4928502;29;20442;-61
2022/06/03 11:14:42;;;;;;;0.90;0.90;;;16.80;99.90;;;;;;4928521;29;20417;-61
2022/06/03 11:17:19;;;;;;;0.60;0.60;;;16.80;99.90;;;;;;4928390;29;20440;-61
2022/06/03 11:19:54;;;;;;;1.13;1.03;;;16.70;99.90;;;;;;4927928;29;20798;-61
2022/06/03 11:22:30;;;;;;;0.80;0.60;;;16.70;99.90;;;;;;4928211;29;20908;-60
2022/06/03 11:25:13;;;;;;;1.07;0.87;;;16.80;99.90;;;;;;4927229;29;20489;-60
2022/06/03 11:27:54;;;;;;;0.80;0.80;;;16.80;99.90;;;;;;4928110;29;20438;-60
2022/06/03 11:30:36;;;;;;;1.13;0.97;;;16.80;99.90;;;;;;4927146;29;20525;-61
2022/06/03 11:33:10;;;;;;;0.90;0.90;;;16.90;99.90;;;;;;4928026;29;20531;-62
2022/06/03 11:35:47;;;;;;;1.20;1.10;;;16.90;99.90;;;;;;4927969;29;20442;-61
2022/06/03 11:38:28;;;;;;;1.10;1.00;;;16.80;99.90;;;;;;4927751;29;20455;-61
2022/06/03 11:41:07;;;;;;;0.97;0.90;;;16.80;99.90;;;;;;4926879;29;20509;-61
2022/06/03 11:43:41;;;;;;;1.30;1.20;;;16.80;99.90;;;;;;4928030;29;20433;-61
2022/06/03 11:46:36;;;;;;;1.30;1.20;;;16.70;99.90;;;;;;4927992;29;20445;-61
2022/06/03 11:49:17;;;;;;;1.47;1.30;;;16.70;99.90;;;;;;4927238;29;20437;-61
2022/06/03 11:51:48;;;;;;;1.30;1.20;;;16.70;99.90;;;;;;4927762;29;20454;-61
2022/06/03 11:54:25;;;;;;;1.13;1.03;;;16.60;99.90;;;;;;4926890;29;20417;-61
2022/06/03 11:56:56;;;;;;;1.10;1.00;;;16.60;99.90;;;;;;4927843;29;20417;-61
2022/06/03 11:59:35;;;;;;;1.70;1.00;;;16.60;99.90;;;;;;4927249;29;20472;-61
2022/06/03 12:02:14;;;;;;;1.27;1.10;;;16.60;99.90;;;;;;4927602;29;20429;-61
2022/06/03 12:04:51;;;;;;;1.13;1.03;;;16.60;99.90;;;;;;4927299;29;20454;-61
2022/06/03 12:07:41;;;;;;;1.30;1.10;;;16.60;99.90;;;;;;4927381;29;20469;-61
2022/06/03 12:10:22;;;;;;;0.97;0.83;;;16.60;99.90;;;;;;4926311;29;20567;-61
2022/06/03 12:13:17;;;;;;;1.33;1.20;;;16.60;99.90;;;;;;4927295;29;20565;-61
2022/06/03 12:16:19;;;;;;;2.50;1.40;;;16.60;99.90;;;;;;4927129;29;20421;-61
2022/06/03 12:19:04;;;;;;;1.23;1.13;;;16.60;99.90;;;;;;4926783;29;20450;-61
2022/06/03 12:22:16;;;;;;;1.30;0.93;;;16.60;99.90;;;;;;4927424;29;20908;-61
2022/06/03 12:25:24;;;;;;;1.17;1.07;;;16.50;99.90;;;;;;4925990;29;20458;-61
2022/06/03 12:27:56;;;;;;;1.10;1.00;;;16.50;99.90;;;;;;4916165;29;20452;-61
2022/06/03 12:30:45;;;;;;;2.00;1.13;;;16.50;99.90;;;;;;4908246;29;20490;-60
2022/06/03 12:33:35;;;;;;;1.20;1.10;;;16.50;99.90;;;;;;4908302;29;20499;-61
2022/06/03 12:36:10;;;;;;;1.40;1.30;;;16.40;99.90;;;;;;4907967;29;20860;-61
2022/06/03 12:39:14;;;;;;;1.40;1.20;;;16.30;99.90;;;;;;4918725;29;20524;-61
2022/06/03 12:42:11;;;;;;;1.40;1.30;;;16.20;99.90;;;;;;4926892;29;20440;-61
2022/06/03 12:44:53;;;;;;;2.07;1.00;;;16.10;99.90;;;;;;4926647;29;20455;-60
2022/06/03 12:47:51;;;;;;;0.83;0.83;;;16.00;99.90;;;;;;4926669;29;20504;-60
2022/06/03 12:50:32;;;;;;;1.50;1.40;;;15.90;99.90;;;;;;4926484;29;20653;-60
2022/06/03 12:53:31;;;;;;;1.37;1.20;;;15.90;99.90;;;;;;4927007;29;20485;-61
2022/06/03 12:56:10;;;;;;;1.50;1.23;;;15.80;99.90;;;;;;4925595;29;20538;-61
2022/06/03 12:58:50;;;;;;;2.07;1.70;;;15.70;99.90;;;;;;4926337;29;20529;-61
2022/06/03 13:01:42;;;;;;;1.60;1.50;;;15.70;99.90;;;;;;4926679;29;20430;-61
2022/06/03 13:04:44;;;;;;;1.20;1.10;;;15.80;99.90;;;;;;4908674;29;20520;-60
2022/06/03 13:07:30;;;;;;;1.60;1.50;;;15.80;99.90;;;;;;4907225;29;20465;-60
2022/06/03 13:10:49;;;;;;;1.40;1.30;;;15.80;99.90;;;;;;4906457;29;20499;-61
2022/06/03 13:13:51;;;;;;;1.63;0.90;;;15.90;99.90;;;;;;4907668;29;20924;-60
2022/06/03 13:16:47;;;;;;;1.63;1.47;;;15.90;99.90;;;;;;4911034;29;20458;-60
2022/06/03 13:20:01;;;;;;;2.10;1.20;;;15.80;99.90;;;;;;4926035;29;20456;-61
2022/06/03 13:22:48;;;;;;;1.17;1.00;;;15.80;99.90;;;;;;4926753;29;20447;-60
2022/06/03 13:25:37;;;;;;;0.87;0.87;;;15.80;99.90;;;;;;4925102;29;20455;-60
2022/06/03 13:28:19;;;;;;;1.20;1.10;;;15.80;99.90;;;;;;4926369;29;20442;-60
2022/06/03 13:34:16;;;;;;;1.33;1.23;;;15.70;99.90;;;;;;5161731;27;20522;-60
2022/06/03 13:36:58;;;;;;;1.80;1.70;;;15.80;99.90;;;;;;5162103;27;20448;-59
2022/06/03 13:40:06;;;;;;;1.10;1.00;;;15.70;99.90;;;;;;5160503;27;20549;-60
2022/06/03 13:43:03;;;;;;;1.63;1.20;;;15.70;99.90;;;;;;5161852;27;20510;-60
2022/06/03 13:46:03;;;;;;;1.20;1.10;;;15.70;99.90;;;;;;5161479;27;20455;-60
2022/06/03 13:48:53;;;;;;;1.07;1.07;;;15.80;99.90;;;;;;5076935;28;20575;-61
2022/06/03 13:51:50;;;;;;;1.00;0.93;;;15.80;99.90;;;;;;5077539;28;20462;-61
2022/06/03 13:54:25;;;;;;;1.33;1.23;;;15.70;99.90;;;;;;5076034;28;20482;-61
2022/06/03 13:57:01;;;;;;;1.20;1.10;;;15.70;99.90;;;;;;5077180;28;20451;-61
2022/06/03 13:59:39;;;;;;;1.50;0.90;;;15.80;99.90;;;;;;5076772;28;20451;-61
2022/06/03 14:02:19;;;;;;;1.00;0.90;;;15.80;99.90;;;;;;5077246;28;20943;-61
2022/06/03 14:05:02;;;;;;;1.30;1.20;;;15.90;99.90;;;;;;5077150;28;20490;-61
2022/06/03 14:07:40;;;;;;;1.27;1.17;;;16.00;99.90;;;;;;5077399;28;20458;-61
2022/06/03 14:10:18;;;;;;;1.13;0.90;;;16.10;99.90;;;;;;5075496;28;20454;-60
2022/06/03 14:12:57;;;;;;;0.90;0.80;;;16.10;99.90;;;;;;5076893;28;20498;-60
2022/06/03 14:15:33;;;;;;;1.33;1.23;;;16.20;99.90;;;;;;5076576;28;20447;-60
2022/06/03 14:18:04;;;;;;;1.30;0.97;;;16.30;99.90;;;;;;5076841;28;20469;-60
2022/06/03 14:20:39;;;;;;;1.37;1.23;;;16.30;99.90;;;;;;5076367;28;20470;-60
2022/06/03 14:23:26;;;;;;;1.70;1.13;;;16.50;99.90;;;;;;5077828;27;20439;-60
2022/06/03 14:26:02;;;;;;;1.10;1.00;;;16.70;99.90;;;;;;5160179;27;20435;-60
2022/06/03 14:28:42;;;;;;;1.60;1.50;;;16.70;99.90;;;;;;5160978;27;20455;-60
2022/06/03 14:31:23;;;;;;;1.17;0.90;;;16.80;99.90;;;;;;5160490;27;20447;-60
2022/06/03 14:33:58;;;;;;;1.80;1.13;;;16.90;99.90;;;;;;5160572;27;20850;-60
2022/06/03 14:36:30;;;;;;;1.53;1.43;;;17.00;99.90;;;;;;5160656;27;20500;-60
2022/06/03 14:39:10;;;;;;;1.33;1.20;;;17.00;99.90;;;;;;5159336;27;20437;-60
2022/06/03 14:41:45;;;;;;;1.07;0.97;;;17.00;99.90;;;;;;5160691;27;20399;-60
2022/06/03 14:44:20;;;;;;;0.90;0.90;;;17.20;99.90;;;;;;5151499;27;20451;-60
2022/06/03 14:46:57;;;;;;;0.80;0.80;;;17.20;99.90;;;;;;5147116;27;20450;-59
2022/06/03 14:49:37;;;;;;;1.20;1.10;;;17.20;99.90;;;;;;5146570;27;20447;-60
2022/06/03 14:52:14;;;;;;;1.20;1.10;;;17.20;99.90;;;;;;5139488;27;20450;-60
2022/06/03 14:54:53;;;;;;;1.53;1.43;;;17.20;99.90;;;;;;5125147;28;20916;-61
2022/06/03 14:57:32;;;;;;;1.17;1.07;;;17.10;99.90;;;;;;5126326;27;20431;-60
2022/06/03 15:00:18;;;;;;;1.20;1.10;;;17.10;99.90;;;;;;5125462;27;20437;-61
2022/06/03 15:02:55;;;;;;;1.33;1.17;;;17.00;99.90;;;;;;5126714;28;20414;-60
2022/06/03 15:05:29;;;;;;;0.70;0.70;;;17.10;99.90;;;;;;5126028;28;20456;-62
2022/06/03 15:08:06;;;;;;;2.43;1.23;;;17.20;99.90;;;;;;5126217;28;20913;-60